createdAt,value
2019-03-16T00:00:07.560Z,3.05
2019-03-16T00:02:35.960Z,3.33
2019-03-16T00:05:05.896Z,3.77
2019-03-16T00:07:34.289Z,3.10
2019-03-16T00:10:02.683Z,3.20
2019-03-16T00:12:31.156Z,2.97
2019-03-16T00:14:59.553Z,2.70
2019-03-16T00:17:27.957Z,2.80
2019-03-16T00:19:56.358Z,2.47
2019-03-16T00:22:24.776Z,3.20
2019-03-16T00:24:53.168Z,2.67
2019-03-16T00:27:21.592Z,3.13
2019-03-16T00:29:49.966Z,3.50
2019-03-16T00:32:18.367Z,2.27
2019-03-16T00:34:46.767Z,2.60
2019-03-16T00:37:15.247Z,2.30
2019-03-16T00:39:43.630Z,2.60
2019-03-16T00:42:12.030Z,2.50
2019-03-16T00:44:40.422Z,3.27
2019-03-16T00:47:08.840Z,3.57
2019-03-16T00:49:37.246Z,3.23
2019-03-16T00:52:05.652Z,2.10
2019-03-16T00:54:34.042Z,2.23
2019-03-16T00:57:02.443Z,2.20
2019-03-16T00:59:30.833Z,2.00
2019-03-16T01:01:59.230Z,1.90
2019-03-16T01:04:27.696Z,3.23
2019-03-16T01:06:56.095Z,1.90
2019-03-16T01:09:24.553Z,2.80
2019-03-16T01:11:53.062Z,2.90
2019-03-16T01:14:21.464Z,2.23
2019-03-16T01:16:49.864Z,1.60
2019-03-16T01:19:18.362Z,2.70
2019-03-16T01:21:46.737Z,2.60
2019-03-16T01:24:15.132Z,2.97
2019-03-16T01:26:43.535Z,2.67
2019-03-16T01:29:11.950Z,2.70
2019-03-16T01:31:40.345Z,2.10
2019-03-16T01:34:08.735Z,4.23
2019-03-16T01:36:37.131Z,2.63
2019-03-16T01:39:07.667Z,2.27
2019-03-16T01:41:36.072Z,2.70
2019-03-16T01:44:04.703Z,2.67
2019-03-16T01:46:33.394Z,2.33
2019-03-16T01:51:35.764Z,2.77
2019-03-16T01:54:23.275Z,3.47
2019-03-16T01:56:51.673Z,2.07
2019-03-16T01:59:39.334Z,2.30
2019-03-16T02:02:07.736Z,2.60
2019-03-16T02:07:44.201Z,2.43
2019-03-16T02:10:52.499Z,2.97
2019-03-16T02:13:20.893Z,3.03
2019-03-16T02:16:11.234Z,2.60
2019-03-16T02:18:57.997Z,2.70
2019-03-16T02:21:26.487Z,2.40
2019-03-16T02:23:56.519Z,2.77
2019-03-16T02:29:50.806Z,2.50
2019-03-16T02:32:19.216Z,3.37
2019-03-16T02:35:27.519Z,2.67
2019-03-16T02:37:56.268Z,3.87
2019-03-16T02:40:24.655Z,2.80
2019-03-16T02:43:12.304Z,2.47
2019-03-16T02:45:40.701Z,2.67
2019-03-16T02:48:09.101Z,2.33
2019-03-16T02:50:37.498Z,3.27
2019-03-16T02:53:25.020Z,2.60
2019-03-16T02:55:53.408Z,3.13
2019-03-16T02:58:21.834Z,3.60
2019-03-16T03:01:09.579Z,2.87
2019-03-16T03:03:58.922Z,4.07
2019-03-16T03:06:27.326Z,3.67
2019-03-16T03:09:14.970Z,3.17
2019-03-16T03:14:30.811Z,2.70
2019-03-16T03:16:59.246Z,3.50
2019-03-16T03:19:46.726Z,3.43
2019-03-16T03:22:15.114Z,2.30
2019-03-16T03:24:44.619Z,4.10
2019-03-16T03:27:13.629Z,3.03
2019-03-16T03:29:42.024Z,4.57
2019-03-16T03:32:10.418Z,4.23
2019-03-16T03:34:38.815Z,3.50
2019-03-16T03:37:26.542Z,3.53
2019-03-16T03:39:54.943Z,2.73
2019-03-16T03:42:23.341Z,3.77
2019-03-16T03:45:31.655Z,3.50
2019-03-16T03:48:00.064Z,2.90
2019-03-16T03:50:47.798Z,3.93
2019-03-16T03:53:16.194Z,3.07
2019-03-16T03:55:44.582Z,4.10
2019-03-16T03:58:32.136Z,2.80
2019-03-16T04:01:19.741Z,2.90
2019-03-16T04:06:42.613Z,3.17
2019-03-16T04:09:30.292Z,3.17
2019-03-16T04:14:46.099Z,3.00
2019-03-16T04:17:14.489Z,4.00
2019-03-16T04:20:02.140Z,2.03
2019-03-16T04:22:30.529Z,3.50
2019-03-16T04:27:32.950Z,3.13
2019-03-16T04:30:20.594Z,3.17
2019-03-16T04:32:48.989Z,3.40
2019-03-16T04:35:17.403Z,2.87
2019-03-16T04:38:05.021Z,3.10
2019-03-16T04:40:33.431Z,2.67
2019-03-16T04:43:20.937Z,2.80
2019-03-16T04:46:08.591Z,4.17
2019-03-16T04:51:11.331Z,3.47
2019-03-16T04:56:14.190Z,2.63
2019-03-16T05:01:36.407Z,3.87
2019-03-16T05:04:04.811Z,2.50
2019-03-16T05:06:33.203Z,2.50
2019-03-16T05:09:01.601Z,2.23
2019-03-16T05:11:49.103Z,3.07
2019-03-16T05:14:17.806Z,2.50
2019-03-16T05:16:46.199Z,3.20
2019-03-16T05:19:33.851Z,2.20
2019-03-16T05:22:21.361Z,2.47
2019-03-16T05:24:49.763Z,3.13
2019-03-16T05:27:18.184Z,2.53
2019-03-16T05:30:05.854Z,2.67
2019-03-16T05:35:21.715Z,2.97
2019-03-16T05:37:50.115Z,2.20
2019-03-16T05:40:18.522Z,3.20
2019-03-16T05:43:06.293Z,2.63
2019-03-16T05:45:34.696Z,2.53
2019-03-16T05:48:03.093Z,2.30
2019-03-16T05:50:31.520Z,2.50
2019-03-16T05:52:59.936Z,2.50
2019-03-16T05:58:02.063Z,2.40
2019-03-16T06:00:30.471Z,2.83
2019-03-16T06:02:58.873Z,2.80
2019-03-16T06:06:07.195Z,2.57
2019-03-16T06:08:54.714Z,2.60
2019-03-16T06:11:42.377Z,2.00
2019-03-16T06:16:58.245Z,2.93
2019-03-16T06:19:26.649Z,2.10
2019-03-16T06:22:14.387Z,2.37
2019-03-16T06:24:42.847Z,2.50
2019-03-16T06:27:11.266Z,2.77
2019-03-16T06:29:39.750Z,3.27
2019-03-16T06:32:08.173Z,2.60
2019-03-16T06:34:36.710Z,2.67
2019-03-16T06:37:05.095Z,2.93
2019-03-16T06:39:33.488Z,2.67
2019-03-16T06:44:35.933Z,2.27
2019-03-16T06:47:23.582Z,2.10
2019-03-16T06:49:51.974Z,2.40
2019-03-16T06:52:39.495Z,2.20
2019-03-16T06:55:47.807Z,2.33
2019-03-16T07:01:22.758Z,2.60
2019-03-16T07:03:51.152Z,2.90
2019-03-16T07:06:38.682Z,2.87
2019-03-16T07:09:47.007Z,2.87
2019-03-16T07:12:15.429Z,2.23
2019-03-16T07:14:43.874Z,1.80
2019-03-16T07:17:31.551Z,3.27
2019-03-16T07:19:59.956Z,2.77
2019-03-16T07:22:28.353Z,2.60
2019-03-16T07:24:56.913Z,3.07
2019-03-16T07:27:26.537Z,2.20
2019-03-16T07:29:55.083Z,2.03
2019-03-16T07:32:23.489Z,2.43
2019-03-16T07:34:51.880Z,2.27
2019-03-16T07:37:20.280Z,2.77
2019-03-16T07:39:48.682Z,2.43
2019-03-16T07:42:17.076Z,2.37
2019-03-16T07:44:45.467Z,2.40
2019-03-16T07:47:13.874Z,2.50
2019-03-16T07:49:42.258Z,1.83
2019-03-16T07:52:10.732Z,2.30
2019-03-16T07:54:39.194Z,2.03
2019-03-16T07:57:07.585Z,1.80
2019-03-16T07:59:37.272Z,1.20
2019-03-16T08:02:05.832Z,2.33
2019-03-16T08:04:34.243Z,1.33
2019-03-16T08:07:02.649Z,1.50
2019-03-16T08:09:31.106Z,1.67
2019-03-16T08:11:59.596Z,1.80
2019-03-16T08:14:28.060Z,1.40
2019-03-16T08:16:56.487Z,1.03
2019-03-16T08:19:24.878Z,1.63
2019-03-16T08:21:53.295Z,1.50
2019-03-16T08:24:21.673Z,1.40
2019-03-16T08:26:50.070Z,1.30
2019-03-16T08:29:18.457Z,1.20
2019-03-16T08:31:47.204Z,1.50
2019-03-16T08:34:15.833Z,1.40
2019-03-16T08:36:44.237Z,1.80
2019-03-16T08:39:12.672Z,1.10
2019-03-16T08:41:41.069Z,1.40
2019-03-16T08:44:09.458Z,1.70
2019-03-16T08:46:37.864Z,1.60
2019-03-16T08:49:06.245Z,1.23
2019-03-16T08:51:34.636Z,1.70
2019-03-16T08:54:03.026Z,1.30
2019-03-16T08:56:31.428Z,1.43
2019-03-16T08:58:59.932Z,1.10
2019-03-16T09:01:28.300Z,1.13
2019-03-16T09:03:56.685Z,2.57
2019-03-16T09:06:25.077Z,1.40
2019-03-16T09:08:53.465Z,1.00
2019-03-16T09:11:21.867Z,1.60
2019-03-16T09:13:50.264Z,1.50
2019-03-16T09:16:18.654Z,1.30
2019-03-16T09:18:47.049Z,1.40
2019-03-16T09:21:15.433Z,1.50
2019-03-16T09:23:44.079Z,1.60
2019-03-16T09:26:12.460Z,1.60
2019-03-16T09:28:40.863Z,1.20
2019-03-16T09:31:09.245Z,1.87
2019-03-16T09:33:37.653Z,1.10
2019-03-16T09:36:06.100Z,1.03
2019-03-16T09:38:34.598Z,0.80
2019-03-16T09:41:02.990Z,1.17
2019-03-16T09:43:31.388Z,1.10
2019-03-16T09:45:59.779Z,1.20
2019-03-16T09:48:28.173Z,1.30
2019-03-16T09:50:56.576Z,2.07
2019-03-16T09:53:24.978Z,1.20
2019-03-16T09:55:53.363Z,1.20
2019-03-16T09:58:30.709Z,1.10
2019-03-16T10:00:51.881Z,2.07
2019-03-16T10:03:20.282Z,1.40
2019-03-16T10:05:48.671Z,1.80
2019-03-16T10:08:19.175Z,1.40
2019-03-16T10:10:47.189Z,1.87
2019-03-16T10:13:15.578Z,2.00
2019-03-16T10:15:43.965Z,2.07
2019-03-16T10:18:12.363Z,1.37
2019-03-16T10:20:40.755Z,1.30
2019-03-16T10:23:09.151Z,1.27
2019-03-16T10:25:37.566Z,1.43
2019-03-16T10:28:05.963Z,1.60
2019-03-16T10:30:34.357Z,1.60
2019-03-16T10:33:02.754Z,2.10
2019-03-16T10:35:31.174Z,1.90
2019-03-16T10:37:59.654Z,1.67
2019-03-16T10:40:28.139Z,2.70
2019-03-16T10:42:56.539Z,1.80
2019-03-16T10:45:24.930Z,1.63
2019-03-16T10:47:53.330Z,1.67
2019-03-16T10:50:21.717Z,1.70
2019-03-16T10:52:50.114Z,1.77
2019-03-16T10:55:18.516Z,2.00
2019-03-16T10:57:46.908Z,2.10
2019-03-16T11:00:16.843Z,1.60
2019-03-16T11:02:45.262Z,2.00
2019-03-16T11:05:13.622Z,2.43
2019-03-16T11:07:42.022Z,2.20
2019-03-16T11:10:14.603Z,3.80
2019-03-16T11:12:42.999Z,1.90
2019-03-16T11:15:12.035Z,2.00
2019-03-16T11:17:40.492Z,1.90
2019-03-16T11:20:10.844Z,2.90
2019-03-16T11:22:39.233Z,2.10
2019-03-16T11:25:08.166Z,1.87
2019-03-16T11:27:36.548Z,2.50
2019-03-16T11:30:08.000Z,2.67
2019-03-16T11:32:36.392Z,2.10
2019-03-16T11:35:06.531Z,1.90
2019-03-16T11:37:34.918Z,2.70
2019-03-16T11:40:03.317Z,2.47
2019-03-16T11:42:31.706Z,3.03
2019-03-16T11:45:00.168Z,1.77
2019-03-16T11:47:28.765Z,2.77
2019-03-16T11:49:57.160Z,2.67
2019-03-16T11:52:25.552Z,2.10
2019-03-16T11:54:53.949Z,3.27
2019-03-16T11:57:22.335Z,2.50
2019-03-16T11:59:50.989Z,3.30
2019-03-16T12:02:19.976Z,3.53
2019-03-16T12:04:48.387Z,3.90
2019-03-16T12:07:16.769Z,3.73
2019-03-16T12:09:45.165Z,3.40
2019-03-16T12:12:13.554Z,3.63
2019-03-16T12:14:41.957Z,3.77
2019-03-16T12:17:10.347Z,4.90
2019-03-16T12:19:38.752Z,5.57
2019-03-16T12:22:07.142Z,5.80
2019-03-16T12:24:35.555Z,7.23
2019-03-16T12:27:03.943Z,5.10
2019-03-16T12:29:34.159Z,6.73
2019-03-16T12:32:02.463Z,6.93
2019-03-16T12:34:30.862Z,6.93
2019-03-16T12:36:59.346Z,7.10
2019-03-16T12:39:27.737Z,6.17
2019-03-16T12:41:56.126Z,7.20
2019-03-16T12:44:24.526Z,7.73
2019-03-16T12:46:52.915Z,7.90
2019-03-16T12:49:21.315Z,7.47
2019-03-16T12:51:49.703Z,8.03
2019-03-16T12:54:18.117Z,8.47
2019-03-16T12:56:46.552Z,7.37
2019-03-16T12:59:14.983Z,7.53
2019-03-16T13:01:43.397Z,7.13
2019-03-16T13:04:11.884Z,8.43
2019-03-16T13:06:40.277Z,7.57
2019-03-16T13:09:08.894Z,7.87
2019-03-16T13:11:37.312Z,8.27
2019-03-16T13:14:05.747Z,8.67
2019-03-16T13:16:37.091Z,8.00
2019-03-16T13:19:04.400Z,8.17
2019-03-16T13:21:32.829Z,8.60
2019-03-16T13:24:01.226Z,7.90
2019-03-16T13:26:29.613Z,8.90
2019-03-16T13:29:17.261Z,9.30
2019-03-16T13:31:45.652Z,8.80
2019-03-16T13:34:33.306Z,8.70
2019-03-16T13:37:20.942Z,9.00
2019-03-16T13:39:49.343Z,9.10
2019-03-16T13:42:37.241Z,9.53
2019-03-16T13:45:24.996Z,10.50
2019-03-16T13:48:12.667Z,9.10
2019-03-16T13:51:00.328Z,9.70
2019-03-16T13:53:28.733Z,10.10
2019-03-16T13:56:11.550Z,10.10
2019-03-16T13:58:40.901Z,9.93
2019-03-16T14:01:10.250Z,8.93
2019-03-16T14:03:38.680Z,9.40
2019-03-16T14:06:08.947Z,9.90
2019-03-16T14:08:37.407Z,8.73
2019-03-16T14:11:05.976Z,9.63
2019-03-16T14:13:36.147Z,10.80
2019-03-16T14:18:40.778Z,10.47
2019-03-16T14:21:09.321Z,8.87
2019-03-16T14:23:37.836Z,9.60
2019-03-16T14:26:25.683Z,9.60
2019-03-16T14:28:54.259Z,10.23
2019-03-16T14:31:22.728Z,8.53
2019-03-16T14:33:51.241Z,10.83
2019-03-16T14:36:19.825Z,7.80
2019-03-16T14:38:48.394Z,7.70
2019-03-16T14:41:16.965Z,9.30
2019-03-16T14:43:45.448Z,8.13
2019-03-16T14:46:13.976Z,8.40
2019-03-16T14:48:42.492Z,6.87
2019-03-16T14:51:11.130Z,6.93
2019-03-16T14:53:47.303Z,6.37
2019-03-16T14:56:15.811Z,6.10
2019-03-16T14:58:44.243Z,5.70
2019-03-16T15:01:13.421Z,5.37
2019-03-16T15:03:43.160Z,6.80
2019-03-16T15:06:30.761Z,7.00
2019-03-16T15:08:59.250Z,8.17
2019-03-16T15:11:27.724Z,7.87
2019-03-16T15:13:56.254Z,7.90
2019-03-16T15:16:24.794Z,6.80
2019-03-16T15:18:53.269Z,8.97
2019-03-16T15:21:21.811Z,4.60
2019-03-16T15:23:50.325Z,4.43
2019-03-16T15:26:18.734Z,5.47
2019-03-16T15:28:54.591Z,5.03
2019-03-16T15:31:17.397Z,5.10
2019-03-16T15:33:45.903Z,5.30
2019-03-16T15:36:14.776Z,4.70
2019-03-16T15:39:02.265Z,4.20
2019-03-16T15:41:30.666Z,4.07
2019-03-16T15:43:59.063Z,4.17
2019-03-16T15:49:59.661Z,3.70
2019-03-16T15:52:47.319Z,4.17
2019-03-16T15:55:15.721Z,4.07
2019-03-16T15:58:08.304Z,4.30
2019-03-16T16:00:33.508Z,5.07
2019-03-16T16:03:41.827Z,3.97
2019-03-16T16:06:29.533Z,3.57
2019-03-16T16:08:57.925Z,3.50
2019-03-16T16:11:26.332Z,4.27
2019-03-16T16:14:13.838Z,3.20
2019-03-16T16:17:01.490Z,6.60
2019-03-16T16:19:49.134Z,3.73
2019-03-16T16:22:36.649Z,4.37
2019-03-16T16:25:44.957Z,3.63
2019-03-16T16:28:13.348Z,4.07
2019-03-16T16:31:00.877Z,4.07
2019-03-16T16:33:29.273Z,3.30
2019-03-16T16:38:31.627Z,2.40
2019-03-16T16:41:19.287Z,3.00
2019-03-16T16:43:47.688Z,2.90
2019-03-16T16:46:35.343Z,4.13
2019-03-16T16:49:22.984Z,3.00
2019-03-16T16:52:10.630Z,3.40
2019-03-16T16:54:58.267Z,3.53
2019-03-16T16:57:26.663Z,4.40
2019-03-16T16:59:55.057Z,2.10
2019-03-16T17:02:42.587Z,2.40
2019-03-16T17:10:53.441Z,2.40
2019-03-16T17:13:21.838Z,2.60
2019-03-16T17:15:50.227Z,2.63
2019-03-16T17:18:18.628Z,2.07
2019-03-16T17:21:06.133Z,3.77
2019-03-16T17:23:34.538Z,2.70
2019-03-16T17:26:22.049Z,3.40
2019-03-16T17:31:46.049Z,3.37
2019-03-16T17:34:14.437Z,3.00
2019-03-16T17:39:35.876Z,3.10
2019-03-16T17:44:58.768Z,3.70
2019-03-16T17:47:46.309Z,2.90
2019-03-16T17:50:54.602Z,4.17
2019-03-16T17:53:23.003Z,3.00
2019-03-16T17:58:37.436Z,2.20
2019-03-16T18:01:25.078Z,2.23
2019-03-16T18:03:53.479Z,1.97
2019-03-16T18:06:21.883Z,3.07
2019-03-16T18:08:50.289Z,2.83
2019-03-16T18:11:18.684Z,2.77
2019-03-16T18:13:47.424Z,2.90
2019-03-16T18:16:35.103Z,2.20
2019-03-16T18:19:22.772Z,2.13
2019-03-16T18:22:10.361Z,4.03
2019-03-16T18:24:38.757Z,2.50
2019-03-16T18:30:18.696Z,3.40
2019-03-16T18:33:06.332Z,3.77
2019-03-16T18:35:53.974Z,5.27
2019-03-16T18:41:15.680Z,4.60
2019-03-16T18:43:44.069Z,5.13
2019-03-16T18:49:38.214Z,4.60
2019-03-16T19:00:01.992Z,3.83
2019-03-16T19:05:44.856Z,3.50
2019-03-16T19:08:13.255Z,3.67
2019-03-16T19:11:00.999Z,3.23
2019-03-16T19:13:48.647Z,4.13
2019-03-16T19:16:36.158Z,3.53
2019-03-16T19:21:59.105Z,3.30
2019-03-16T19:24:46.653Z,3.33
2019-03-16T19:27:34.267Z,3.47
2019-03-16T19:30:02.688Z,3.00
2019-03-16T19:32:33.874Z,3.13
2019-03-16T19:35:01.218Z,2.53
2019-03-16T19:37:48.861Z,2.77
2019-03-16T19:40:57.171Z,2.83
2019-03-16T19:43:44.687Z,2.70
2019-03-16T19:46:13.082Z,3.03
2019-03-16T19:49:00.676Z,3.80
2019-03-16T19:51:48.324Z,3.20
2019-03-16T19:54:36.048Z,3.00
2019-03-16T19:59:51.888Z,3.07
2019-03-16T20:02:20.336Z,2.80
2019-03-16T20:05:07.990Z,3.10
2019-03-16T20:07:55.503Z,3.00
2019-03-16T20:15:32.107Z,2.80
2019-03-16T20:18:19.658Z,2.83
2019-03-16T20:23:35.506Z,2.77
2019-03-16T20:26:03.901Z,2.20
2019-03-16T20:28:32.312Z,2.67
2019-03-16T20:31:00.699Z,2.20
2019-03-16T20:33:29.108Z,2.60
2019-03-16T20:35:57.497Z,2.23
2019-03-16T20:38:25.894Z,2.47
2019-03-16T20:41:13.413Z,2.63
2019-03-16T20:43:42.044Z,3.37
2019-03-16T20:46:31.266Z,2.50
2019-03-16T20:48:59.673Z,2.77
2019-03-16T20:51:28.067Z,2.00
2019-03-16T20:53:56.469Z,2.77
2019-03-16T20:56:24.858Z,2.50
2019-03-16T20:58:53.264Z,2.10
2019-03-16T21:01:21.845Z,2.43
2019-03-16T21:04:10.912Z,2.10
2019-03-16T21:06:39.305Z,2.30
2019-03-16T21:09:26.959Z,2.27
2019-03-16T21:11:55.347Z,2.33
2019-03-16T21:14:42.996Z,2.43
2019-03-16T21:17:11.394Z,2.53
2019-03-16T21:19:59.166Z,2.63
2019-03-16T21:22:35.567Z,2.47
2019-03-16T21:24:57.679Z,2.20
2019-03-16T21:27:26.078Z,3.07
2019-03-16T21:29:54.479Z,1.90
2019-03-16T21:32:42.172Z,3.33
2019-03-16T21:35:10.573Z,2.73
2019-03-16T21:37:38.969Z,3.37
2019-03-16T21:40:47.346Z,3.17
2019-03-16T21:43:15.831Z,2.43
2019-03-16T21:45:44.230Z,2.43
2019-03-16T21:53:33.685Z,2.70
2019-03-16T21:58:36.023Z,3.60
2019-03-16T22:03:58.625Z,2.43
2019-03-16T22:06:27.019Z,2.70
2019-03-16T22:08:55.415Z,2.20
2019-03-16T22:13:58.216Z,3.10
2019-03-16T22:16:26.614Z,2.27
2019-03-16T22:18:55.011Z,3.00
2019-03-16T22:21:23.409Z,2.27
2019-03-16T22:26:39.315Z,3.13
2019-03-16T22:32:01.272Z,3.40
2019-03-16T22:34:29.680Z,2.90
2019-03-16T22:37:17.424Z,3.00
2019-03-16T22:44:53.921Z,3.30
2019-03-16T22:49:56.211Z,3.07
2019-03-16T22:52:44.064Z,3.23
2019-03-16T22:55:52.367Z,3.73
2019-03-16T22:58:39.875Z,3.10
2019-03-16T23:01:27.462Z,3.20
2019-03-16T23:04:06.213Z,3.47
2019-03-16T23:07:05.972Z,3.20
2019-03-16T23:09:53.478Z,3.40
2019-03-16T23:12:41.208Z,3.13
2019-03-16T23:15:28.943Z,2.83
2019-03-16T23:18:37.253Z,2.97
2019-03-16T23:23:59.536Z,2.83
2019-03-16T23:26:47.190Z,2.50
2019-03-16T23:29:34.831Z,3.47
2019-03-16T23:32:03.383Z,3.37
2019-03-16T23:34:31.722Z,3.57
2019-03-16T23:37:19.462Z,3.00
2019-03-16T23:40:07.099Z,3.23
2019-03-16T23:42:54.747Z,3.17
2019-03-16T23:45:42.334Z,3.40
2019-03-16T23:48:10.726Z,3.10
2019-03-16T23:50:39.186Z,3.77
2019-03-16T23:53:26.812Z,3.20
2019-03-16T23:55:55.370Z,3.23
2019-03-16T23:58:23.906Z,3.20
